Terminal Aerodrome Forecast
Issued by NWS

Home | Current Version | Previous Version | Text Only | Print | Product List | Glossary On
Versions: 1 2 3 4 5 6 7 8 9 10 11 12 13 14 15 16 17
000
FTUS43 KICT 192339
TAFHUT
TAF
KHUT 192339Z 2000/2024 02011KT P6SM OVC015
     FM200400 04011KT P6SM -FZDZ SCT009 OVC015 WS020/19030KT
     FM201300 36016G23KT P6SM SCT015 OVC025=

USA.gov is the U.S. government's official web portal to all federal, state and local government web resources and services.